Time;durP1;ratioP1;P1;durP2;ratioP2;P2;SDS_P1;SDS_P2;PMS_P1;PMS_P2;Temp;Humidity;BMP_temperature;BMP_pressure;BME280_temperature;BME280_humidity;BME280_pressure;Samples;Min_cycle;Max_cycle;Signal;HPM_P1;HPM_P2
2024/03/05 00:01:37;;;;;;;26.37;13.67;;;8.10;99.90;7.90;100152.00;;;;4933943;28;93436;-62
2024/03/05 00:04:06;;;;;;;22.83;12.57;;;8.10;99.90;7.90;100157.00;;;;4927288;28;93164;-64
2024/03/05 00:06:32;;;;;;;18.83;12.20;;;8.40;99.90;7.80;100167.00;;;;4931733;28;113399;-64
2024/03/05 00:08:59;;;;;;;15.63;11.10;;;8.10;99.90;7.80;100171.00;;;;4926808;28;93550;-63
2024/03/05 00:11:25;;;;;;;20.27;11.23;;;7.90;99.90;7.80;100174.00;;;;4927291;28;93114;-63
2024/03/05 00:13:54;;;;;;;19.50;11.60;;;7.90;99.90;7.80;100166.00;;;;4931021;28;92839;-63
2024/03/05 00:16:19;;;;;;;19.27;11.03;;;7.90;99.90;7.80;100172.00;;;;4931522;28;94021;-63
2024/03/05 00:18:48;;;;;;;19.20;12.97;;;7.90;99.90;7.80;100171.00;;;;4933774;28;121162;-65
2024/03/05 00:21:13;;;;;;;20.10;11.67;;;7.90;99.90;7.80;100172.00;;;;4927294;28;93081;-65
2024/03/05 00:23:39;;;;;;;24.13;11.03;;;7.90;99.90;7.80;100172.00;;;;4923483;28;108417;-64
2024/03/05 00:26:06;;;;;;;19.83;11.47;;;8.20;99.90;7.80;100168.00;;;;4922867;28;112572;-65
2024/03/05 00:28:32;;;;;;;18.97;10.67;;;7.90;99.90;7.80;100178.00;;;;4925877;28;107965;-64
2024/03/05 00:30:58;;;;;;;14.93;10.20;;;7.90;99.90;7.80;100180.00;;;;4923587;28;98599;-64
2024/03/05 00:33:24;;;;;;;20.30;11.93;;;7.90;99.90;7.80;100184.00;;;;4926099;28;97556;-65
2024/03/05 00:35:51;;;;;;;24.10;11.97;;;7.90;99.90;7.80;100179.00;;;;4925268;28;115618;-65
2024/03/05 00:38:17;;;;;;;20.03;12.30;;;7.90;99.90;7.80;100186.00;;;;4920805;28;111784;-63
2024/03/05 00:40:42;;;;;;;22.10;11.10;;;7.90;99.90;7.80;100188.00;;;;4924469;28;106859;-64
2024/03/05 00:43:08;;;;;;;23.23;12.23;;;8.00;99.90;7.80;100186.00;;;;4927312;28;109281;-64
2024/03/05 00:45:35;;;;;;;18.17;10.30;;;8.00;99.90;7.80;100190.00;;;;4931021;28;93865;-64
2024/03/05 00:48:01;;;;;;;25.93;13.00;;;8.00;99.90;7.80;100189.00;;;;4926690;28;95285;-63
2024/03/05 00:50:27;;;;;;;24.87;10.60;;;8.00;99.90;7.90;100187.00;;;;4932407;28;93174;-63
2024/03/05 00:52:53;;;;;;;19.37;10.90;;;8.00;99.90;7.90;100186.00;;;;4928469;28;108456;-62
2024/03/05 00:55:19;;;;;;;18.00;11.70;;;8.00;99.90;7.90;100205.00;;;;4928200;28;123304;-63
2024/03/05 00:57:45;;;;;;;19.23;10.97;;;8.00;99.90;7.90;100208.00;;;;4923275;28;93809;-64
2024/03/05 01:00:14;;;;;;;23.80;11.60;;;8.00;99.90;7.90;100200.00;;;;4927833;28;105780;-63
2024/03/05 01:02:42;;;;;;;21.70;11.03;;;8.00;99.90;7.90;100193.00;;;;4932652;28;92933;-64
2024/03/05 01:05:09;;;;;;;21.83;11.53;;;8.00;99.90;7.90;100205.00;;;;4929447;28;92437;-64
2024/03/05 01:07:37;;;;;;;23.87;11.83;;;8.00;99.90;7.90;100201.00;;;;4923323;28;93397;-64
2024/03/05 01:10:05;;;;;;;19.47;10.33;;;8.00;99.90;7.90;100191.00;;;;4927574;28;92821;-64
2024/03/05 01:12:31;;;;;;;22.87;12.90;;;8.00;99.90;7.90;100202.00;;;;4924713;28;102471;-65
2024/03/05 01:14:57;;;;;;;17.13;11.00;;;8.00;99.90;7.90;100217.00;;;;4930433;28;93179;-64
2024/03/05 01:17:24;;;;;;;20.80;12.93;;;8.10;99.90;7.90;100200.00;;;;4930628;28;93852;-64
2024/03/05 01:19:49;;;;;;;20.23;13.77;;;8.10;99.90;7.90;100206.00;;;;4927885;28;106475;-64
2024/03/05 01:22:16;;;;;;;23.53;11.40;;;8.10;99.90;7.90;100206.00;;;;4931651;28;95440;-64
2024/03/05 01:24:42;;;;;;;22.87;13.07;;;8.10;99.90;7.90;100202.00;;;;4927598;28;111799;-63
2024/03/05 01:27:08;;;;;;;15.20;10.67;;;8.00;99.90;8.00;100215.00;;;;4923572;28;121966;-63
2024/03/05 01:29:33;;;;;;;15.87;11.00;;;8.10;99.90;8.00;100207.00;;;;4928507;28;92239;-63
2024/03/05 01:32:01;;;;;;;23.40;11.23;;;8.10;99.90;8.00;100212.00;;;;4924913;28;96401;-63
2024/03/05 01:34:31;;;;;;;17.57;9.93;;;8.10;99.90;8.00;100213.00;;;;4924744;28;93783;-64
2024/03/05 01:36:57;;;;;;;24.03;13.77;;;8.10;99.90;8.00;100210.00;;;;4925753;28;94154;-63
2024/03/05 01:39:28;;;;;;;21.67;12.33;;;8.10;99.90;8.00;100210.00;;;;4925268;28;92852;-64
2024/03/05 01:41:55;;;;;;;17.20;11.27;;;8.10;99.90;8.00;100206.00;;;;4926882;28;92740;-63
2024/03/05 01:44:21;;;;;;;24.53;11.77;;;8.10;99.90;8.00;100209.00;;;;4926316;28;95216;-64
2024/03/05 01:46:51;;;;;;;21.10;12.20;;;8.10;99.90;8.00;100205.00;;;;4926464;28;93359;-63
2024/03/05 01:49:19;;;;;;;18.17;12.07;;;8.10;99.90;8.00;100198.00;;;;4926090;28;94734;-64
2024/03/05 01:51:45;;;;;;;25.93;13.73;;;8.10;99.90;7.90;100199.00;;;;4928881;28;92950;-64
2024/03/05 01:54:13;;;;;;;22.00;11.97;;;8.10;99.90;7.90;100206.00;;;;4928280;28;93799;-64
2024/03/05 01:56:39;;;;;;;25.23;12.50;;;8.10;99.90;7.90;100209.00;;;;4930602;28;93210;-63
2024/03/05 01:59:05;;;;;;;25.23;12.63;;;7.90;99.90;7.90;100207.00;;;;4929714;28;92846;-64
2024/03/05 02:01:31;;;;;;;21.03;11.43;;;8.20;99.90;7.80;100205.00;;;;4924689;28;108048;-64
2024/03/05 02:03:58;;;;;;;23.53;12.47;;;7.90;99.90;7.80;100203.00;;;;4930206;28;123719;-63
2024/03/05 02:06:24;;;;;;;26.53;13.33;;;7.90;99.90;7.80;100206.00;;;;4925336;28;93565;-64
2024/03/05 02:08:50;;;;;;;19.20;12.60;;;8.10;99.90;7.80;100202.00;;;;4925170;28;95656;-63
2024/03/05 02:11:16;;;;;;;28.47;13.17;;;7.90;99.90;7.80;100207.00;;;;4937034;28;109803;-63
2024/03/05 02:13:43;;;;;;;18.17;9.97;;;7.90;99.90;7.70;100205.00;;;;4921347;28;123202;-63
2024/03/05 02:16:09;;;;;;;21.57;12.63;;;7.80;99.90;7.70;100211.00;;;;4923974;28;122786;-63
2024/03/05 02:18:35;;;;;;;17.87;12.07;;;7.80;99.90;7.70;100210.00;;;;4923785;28;92598;-63
2024/03/05 02:21:05;;;;;;;18.87;12.40;;;7.80;99.90;7.60;100212.00;;;;4921506;28;92898;-65
2024/03/05 02:23:32;;;;;;;22.00;13.17;;;7.80;99.90;7.60;100208.00;;;;4923329;28;124108;-65
2024/03/05 02:26:00;;;;;;;17.57;12.07;;;7.90;99.90;7.60;100213.00;;;;4925094;28;94192;-65
2024/03/05 02:28:26;;;;;;;22.37;11.60;;;7.70;99.90;7.60;100218.00;;;;4923828;28;92961;-64
2024/03/05 02:30:51;;;;;;;19.70;12.63;;;7.70;99.90;7.60;100213.00;;;;4923221;28;95580;-64
2024/03/05 02:33:19;;;;;;;17.17;9.73;;;7.70;99.90;7.60;100224.00;;;;4922974;28;94254;-63
2024/03/05 02:35:46;;;;;;;23.83;11.40;;;7.70;99.90;7.60;100218.00;;;;4927913;28;110658;-63
2024/03/05 02:38:12;;;;;;;14.23;10.97;;;7.80;99.90;7.60;100218.00;;;;4927885;28;92777;-63
2024/03/05 02:40:39;;;;;;;29.00;13.30;;;7.70;99.90;7.60;100222.00;;;;4931177;28;93092;-63
2024/03/05 02:43:06;;;;;;;22.77;14.13;;;7.70;99.90;7.60;100223.00;;;;4926073;28;93427;-64
2024/03/05 02:45:32;;;;;;;27.67;13.63;;;7.70;99.90;7.60;100223.00;;;;4926221;28;93136;-64
2024/03/05 02:48:03;;;;;;;17.77;11.17;;;7.70;99.90;7.60;100231.00;;;;4928884;28;92925;-63
2024/03/05 02:50:28;;;;;;;20.63;12.80;;;7.70;99.90;7.60;100223.00;;;;4924606;28;93817;-63
2024/03/05 02:52:54;;;;;;;19.30;12.67;;;7.70;99.90;7.60;100227.00;;;;4927403;28;123985;-63
2024/03/05 02:55:19;;;;;;;26.03;12.50;;;7.80;99.90;7.60;100227.00;;;;4936717;28;122164;-65
2024/03/05 02:57:46;;;;;;;19.07;12.13;;;7.80;99.90;7.60;100229.00;;;;4932077;28;112474;-64
2024/03/05 03:00:18;;;;;;;18.43;11.90;;;7.70;99.90;7.60;100240.00;;;;4932324;28;92881;-63
2024/03/05 03:02:47;;;;;;;21.90;12.67;;;7.80;99.90;7.60;100236.00;;;;4931476;28;93777;-64
2024/03/05 03:05:13;;;;;;;25.90;13.93;;;7.70;99.90;7.60;100227.00;;;;4927419;28;93448;-64
2024/03/05 03:07:38;;;;;;;23.87;12.90;;;7.70;99.90;7.60;100230.00;;;;4926957;28;113712;-64
2024/03/05 03:10:08;;;;;;;24.20;12.63;;;7.70;99.90;7.50;100225.00;;;;4929671;28;109678;-63
2024/03/05 03:12:35;;;;;;;21.47;11.20;;;8.00;99.90;7.50;100231.00;;;;4929041;28;93689;-64
2024/03/05 03:15:01;;;;;;;20.60;13.77;;;7.60;99.90;7.50;100236.00;;;;4926244;28;120585;-64
2024/03/05 03:17:26;;;;;;;23.03;12.13;;;7.70;99.90;7.50;100229.00;;;;4927799;28;112103;-63
2024/03/05 03:19:52;;;;;;;23.17;12.97;;;7.60;99.90;7.50;100240.00;;;;4933225;28;108748;-63
2024/03/05 03:22:17;;;;;;;18.23;11.37;;;7.10;99.90;7.50;100242.00;;;;4925073;28;97756;-63
2024/03/05 03:24:43;;;;;;;17.03;11.50;;;7.70;99.90;7.50;100241.00;;;;4929682;28;121774;-64
2024/03/05 03:27:09;;;;;;;19.60;12.37;;;7.60;99.90;7.50;100240.00;;;;4925402;28;114601;-64
2024/03/05 03:29:35;;;;;;;18.80;11.57;;;7.60;99.90;7.50;100254.00;;;;4925681;28;107372;-64
2024/03/05 03:32:01;;;;;;;23.40;14.23;;;7.60;99.90;7.50;100249.00;;;;4930410;28;122077;-64
2024/03/05 03:34:26;;;;;;;23.60;12.13;;;7.70;99.90;7.50;100257.00;;;;4931792;28;93278;-64
2024/03/05 03:36:53;;;;;;;25.07;13.43;;;7.60;99.90;7.50;100246.00;;;;4927854;28;113151;-63
2024/03/05 03:39:23;;;;;;;22.63;11.27;;;7.60;99.90;7.50;100245.00;;;;4926417;28;94061;-64
2024/03/05 03:41:54;;;;;;;22.53;12.57;;;7.60;99.90;7.50;100244.00;;;;4928167;28;92987;-63
2024/03/05 03:44:22;;;;;;;19.40;10.33;;;7.60;99.90;7.50;100250.00;;;;4928789;28;122495;-65
2024/03/05 03:46:48;;;;;;;18.47;12.47;;;7.60;99.90;7.40;100237.00;;;;4927967;28;93015;-65
2024/03/05 03:49:14;;;;;;;22.97;12.30;;;7.60;99.90;7.40;100238.00;;;;4932614;28;92966;-64
2024/03/05 03:51:40;;;;;;;26.83;13.93;;;7.60;99.90;7.40;100230.00;;;;4929388;28;93194;-64
2024/03/05 03:54:06;;;;;;;22.93;12.20;;;7.50;99.90;7.40;100229.00;;;;4928386;28;123997;-64
2024/03/05 03:56:33;;;;;;;22.73;13.10;;;7.50;99.90;7.30;100235.00;;;;4931939;28;111589;-64
2024/03/05 03:58:59;;;;;;;21.90;12.30;;;7.50;99.90;7.30;100241.00;;;;4928313;28;92954;-64
2024/03/05 04:01:25;;;;;;;20.23;12.10;;;7.70;99.90;7.30;100243.00;;;;4923892;28;115028;-64
2024/03/05 04:03:51;;;;;;;19.73;12.97;;;7.40;99.90;7.20;100248.00;;;;4930995;28;123136;-64
2024/03/05 04:06:18;;;;;;;23.73;13.13;;;7.40;99.90;7.20;100254.00;;;;4929096;28;112260;-63
2024/03/05 04:08:43;;;;;;;25.57;12.33;;;7.90;99.90;7.20;100246.00;;;;4926275;28;108454;-64
2024/03/05 04:11:09;;;;;;;22.93;12.40;;;8.00;99.90;7.20;100240.00;;;;4927427;28;122047;-64
2024/03/05 04:13:38;;;;;;;21.50;11.87;;;7.50;99.90;7.30;100248.00;;;;4928764;28;93551;-64
2024/03/05 04:16:05;;;;;;;26.83;12.17;;;7.40;99.90;7.30;100251.00;;;;4926373;28;92965;-63
2024/03/05 04:18:31;;;;;;;25.10;13.03;;;7.40;99.90;7.30;100245.00;;;;4930693;28;93253;-63
2024/03/05 04:20:56;;;;;;;25.40;12.33;;;7.40;99.90;7.30;100247.00;;;;4927869;28;92635;-64
2024/03/05 04:23:22;;;;;;;17.50;12.27;;;7.50;99.90;7.20;100253.00;;;;4927883;28;93108;-64
2024/03/05 04:25:50;;;;;;;19.27;12.13;;;7.80;99.90;7.20;100253.00;;;;4927682;28;93087;-63
2024/03/05 04:28:16;;;;;;;20.93;13.10;;;7.40;99.90;7.20;100261.00;;;;4929717;28;93946;-64
2024/03/05 04:30:46;;;;;;;22.80;11.67;;;7.40;99.90;7.20;100266.00;;;;4925605;28;93242;-64
2024/03/05 04:33:15;;;;;;;21.23;13.13;;;7.40;99.90;7.20;100259.00;;;;4933200;28;93785;-64
2024/03/05 04:35:42;;;;;;;18.50;12.10;;;7.30;99.90;7.30;100267.00;;;;4924283;28;92801;-64
2024/03/05 04:38:08;;;;;;;23.60;12.70;;;7.50;99.90;7.20;100267.00;;;;4927368;28;92872;-64
2024/03/05 04:40:35;;;;;;;27.73;14.10;;;7.40;99.90;7.20;100273.00;;;;4929225;28;122227;-64
2024/03/05 04:43:00;;;;;;;18.37;11.23;;;7.30;99.90;7.20;100267.00;;;;4926962;28;93838;-65
2024/03/05 04:45:27;;;;;;;20.87;12.83;;;7.30;99.90;7.20;100262.00;;;;4933192;28;92096;-64
2024/03/05 04:47:53;;;;;;;22.87;13.30;;;7.30;99.90;7.20;100269.00;;;;4930795;28;92927;-64
2024/03/05 04:50:20;;;;;;;21.87;13.80;;;7.30;99.90;7.10;100275.00;;;;4927101;28;102756;-64
2024/03/05 04:52:45;;;;;;;19.77;12.03;;;8.00;99.90;7.10;100270.00;;;;4927217;28;93985;-64
2024/03/05 04:55:15;;;;;;;22.77;13.07;;;7.30;99.90;7.10;100273.00;;;;4933007;28;93351;-63
2024/03/05 04:57:40;;;;;;;18.70;13.27;;;7.20;99.90;7.10;100272.00;;;;4927739;28;92819;-62
2024/03/05 05:00:19;;;;;;;23.90;13.30;;;7.40;99.90;7.10;100284.00;;;;4920919;28;123589;-62
2024/03/05 05:02:46;;;;;;;24.17;12.33;;;7.30;99.90;7.10;100293.00;;;;4919098;28;93546;-62
2024/03/05 05:05:12;;;;;;;20.97;11.83;;;7.20;99.90;7.10;100288.00;;;;4929370;28;92877;-62
2024/03/05 05:07:39;;;;;;;26.13;12.10;;;7.20;99.90;7.10;100283.00;;;;4925104;28;108047;-64
2024/03/05 05:10:07;;;;;;;20.77;12.60;;;7.30;99.90;7.10;100283.00;;;;4928360;28;120323;-62
2024/03/05 05:12:33;;;;;;;29.03;14.93;;;7.10;99.90;7.10;100285.00;;;;4930455;28;98241;-63
2024/03/05 05:15:00;;;;;;;23.40;13.23;;;7.20;99.90;7.00;100292.00;;;;4931289;28;92909;-63
2024/03/05 05:17:26;;;;;;;24.43;13.40;;;7.20;99.90;7.00;100286.00;;;;4930289;28;93930;-63
2024/03/05 05:19:51;;;;;;;21.17;13.50;;;7.90;99.90;6.90;100280.00;;;;4928068;28;116650;-63
2024/03/05 05:22:17;;;;;;;19.40;13.23;;;7.10;99.90;6.90;100277.00;;;;4926607;28;121268;-63
2024/03/05 05:24:43;;;;;;;29.77;14.43;;;7.00;99.90;6.80;100287.00;;;;4927644;28;113689;-64
2024/03/05 05:27:09;;;;;;;22.70;13.07;;;7.00;99.90;6.80;100281.00;;;;4930803;28;93341;-64
2024/03/05 05:29:36;;;;;;;25.73;12.90;;;7.60;99.90;6.80;100277.00;;;;4931449;28;99250;-64
2024/03/05 05:32:03;;;;;;;23.77;13.10;;;7.00;99.90;6.70;100274.00;;;;4928657;28;114736;-62
2024/03/05 05:34:28;;;;;;;24.70;12.47;;;7.00;99.90;6.70;100287.00;;;;4934360;28;92304;-64
2024/03/05 05:36:54;;;;;;;21.87;12.60;;;6.90;99.90;6.70;100288.00;;;;4926808;28;109853;-62
2024/03/05 05:39:24;;;;;;;22.37;12.73;;;7.40;99.90;6.70;100288.00;;;;4929948;28;94003;-62
2024/03/05 05:41:53;;;;;;;19.13;13.63;;;7.10;99.90;6.70;100282.00;;;;4922163;28;93863;-64
2024/03/05 05:44:20;;;;;;;21.50;13.00;;;6.90;99.90;6.70;100276.00;;;;4926236;28;107533;-63
2024/03/05 05:46:51;;;;;;;23.73;15.40;;;7.40;99.90;6.60;100281.00;;;;4928548;28;97511;-63
2024/03/05 05:49:20;;;;;;;21.93;13.83;;;6.80;99.90;6.50;100287.00;;;;4923564;28;104776;-61
2024/03/05 05:51:47;;;;;;;30.17;14.70;;;6.70;99.90;6.50;100280.00;;;;4922777;28;92885;-63
2024/03/05 05:54:12;;;;;;;23.27;13.40;;;6.70;99.90;6.40;100282.00;;;;4926369;28;92919;-62
2024/03/05 05:56:39;;;;;;;27.13;13.50;;;6.60;99.90;6.40;100292.00;;;;4926026;28;100489;-63
2024/03/05 05:59:07;;;;;;;19.90;13.83;;;6.60;99.90;6.30;100299.00;;;;4921645;28;113528;-65
2024/03/05 06:01:34;;;;;;;16.00;11.90;;;6.70;99.90;6.30;100296.00;;;;4922879;28;93018;-63
2024/03/05 06:04:02;;;;;;;17.93;12.47;;;7.00;99.90;6.30;100297.00;;;;4929697;28;93011;-63
2024/03/05 06:06:28;;;;;;;17.47;11.63;;;6.50;99.90;6.30;100298.00;;;;4925011;28;94007;-64
2024/03/05 06:08:53;;;;;;;23.37;13.53;;;7.30;99.90;6.30;100301.00;;;;4931941;28;94161;-62
2024/03/05 06:11:20;;;;;;;20.03;12.90;;;7.10;99.90;6.30;100293.00;;;;4930989;28;94246;-63
2024/03/05 06:13:46;;;;;;;18.00;13.43;;;7.00;99.90;6.30;100283.00;;;;4928036;28;92824;-63
2024/03/05 06:16:12;;;;;;;29.23;14.47;;;6.50;99.90;6.30;100292.00;;;;4927427;28;92905;-63
2024/03/05 06:18:38;;;;;;;25.43;14.60;;;6.50;99.90;6.30;100292.00;;;;4925567;28;94225;-65
2024/03/05 06:21:05;;;;;;;19.73;11.87;;;6.90;99.90;6.30;100289.00;;;;4930239;28;123697;-63
2024/03/05 06:23:31;;;;;;;25.33;14.47;;;6.50;99.90;6.30;100293.00;;;;4928439;28;93409;-63
2024/03/05 06:25:56;;;;;;;19.67;13.43;;;6.70;99.90;6.30;100294.00;;;;4933659;28;93250;-63
2024/03/05 06:28:22;;;;;;;21.30;12.90;;;6.50;99.90;6.30;100295.00;;;;4927838;28;110034;-63
2024/03/05 06:30:51;;;;;;;15.17;11.33;;;6.50;99.90;6.30;100307.00;;;;4936358;28;122254;-63
2024/03/05 06:33:17;;;;;;;26.20;13.03;;;6.50;99.90;6.40;100315.00;;;;4930111;28;103921;-63
2024/03/05 06:35:43;;;;;;;21.77;12.70;;;7.20;99.90;6.40;100319.00;;;;4933788;28;92852;-63
2024/03/05 06:38:09;;;;;;;20.57;13.37;;;7.20;99.90;6.40;100316.00;;;;4935397;28;122484;-63
2024/03/05 06:40:38;;;;;;;20.47;13.77;;;6.50;99.90;6.40;100315.00;;;;4929434;28;114875;-64
2024/03/05 06:43:05;;;;;;;27.43;14.67;;;6.60;99.90;6.40;100323.00;;;;4931404;28;92852;-63
2024/03/05 06:45:34;;;;;;;16.53;11.40;;;6.60;99.90;6.50;100318.00;;;;4935406;28;92841;-63
2024/03/05 06:48:01;;;;;;;19.43;12.30;;;6.90;99.90;6.50;100331.00;;;;4933321;28;92169;-63
2024/03/05 06:50:34;;;;;;;21.37;14.37;;;7.00;99.90;6.50;100336.00;;;;4931254;28;94066;-64
2024/03/05 06:58:44;;;;;;;18.83;13.60;;;6.80;99.90;6.70;100340.00;;;;4928889;28;92971;-63
2024/03/05 07:01:19;;;;;;;15.47;11.87;;;7.00;99.90;6.70;100338.00;;;;4930184;28;93668;-62
2024/03/05 07:03:47;;;;;;;18.93;12.40;;;6.90;99.90;6.80;100337.00;;;;4929367;28;93249;-63
2024/03/05 07:06:12;;;;;;;21.50;12.90;;;7.70;99.90;6.80;100345.00;;;;4935521;28;93347;-65
2024/03/05 07:08:42;;;;;;;17.67;12.43;;;6.90;99.90;6.80;100337.00;;;;4934499;28;121620;-63
2024/03/05 07:11:10;;;;;;;19.87;12.10;;;7.30;99.90;6.80;100337.00;;;;4933205;28;92987;-62
2024/03/05 07:13:41;;;;;;;19.87;11.53;;;7.00;99.90;6.90;100335.00;;;;4933561;28;93133;-63
2024/03/05 07:16:09;;;;;;;24.27;14.20;;;7.00;99.90;7.00;100331.00;;;;4932968;28;93002;-63
2024/03/05 07:18:38;;;;;;;20.17;11.47;;;7.20;99.90;7.00;100323.00;;;;4933569;28;94162;-62
2024/03/05 07:21:04;;;;;;;26.00;14.33;;;7.10;99.90;7.10;100315.00;;;;4929131;28;94155;-63
2024/03/05 07:23:30;;;;;;;26.70;13.83;;;7.10;99.90;7.20;100318.00;;;;4930075;28;114021;-62
2024/03/05 07:25:59;;;;;;;21.80;12.37;;;7.40;99.90;7.20;100321.00;;;;4928508;28;108515;-62
2024/03/05 07:28:26;;;;;;;19.53;12.73;;;7.40;99.90;7.20;100333.00;;;;4927911;28;94056;-63
2024/03/05 07:30:55;;;;;;;21.27;14.03;;;7.40;99.90;7.20;100324.00;;;;4932931;28;93679;-63
2024/03/05 07:33:21;;;;;;;24.00;13.67;;;7.30;99.90;7.10;100343.00;;;;4931151;28;103702;-64
2024/03/05 07:35:47;;;;;;;22.23;11.63;;;7.30;99.90;7.10;100341.00;;;;4931071;28;99904;-62
2024/03/05 07:38:14;;;;;;;25.97;14.27;;;7.20;99.90;7.10;100350.00;;;;4930480;28;122938;-63
2024/03/05 07:40:41;;;;;;;17.10;11.63;;;7.20;99.90;7.10;100351.00;;;;4927909;28;93320;-64
2024/03/05 07:43:08;;;;;;;21.20;12.80;;;7.20;99.90;7.10;100356.00;;;;4930820;28;92806;-63
2024/03/05 07:45:34;;;;;;;22.07;14.00;;;7.30;99.90;7.10;100360.00;;;;4930304;28;94015;-64
2024/03/05 07:48:00;;;;;;;19.23;11.77;;;7.20;99.90;7.10;100351.00;;;;4925272;28;117217;-64
2024/03/05 07:50:28;;;;;;;19.47;12.40;;;7.40;99.90;7.00;100360.00;;;;4934114;28;121365;-65
2024/03/05 07:52:54;;;;;;;28.37;13.93;;;7.20;99.90;7.10;100352.00;;;;4933553;28;93059;-64
2024/03/05 07:55:23;;;;;;;20.13;12.37;;;7.20;99.90;7.10;100355.00;;;;4934312;28;93245;-64
2024/03/05 07:57:49;;;;;;;24.00;12.37;;;7.20;99.90;7.20;100366.00;;;;4933769;28;93912;-64
2024/03/05 08:00:17;;;;;;;22.10;13.27;;;7.20;99.90;7.30;100362.00;;;;4928714;28;92822;-64
2024/03/05 08:02:45;;;;;;;17.87;12.13;;;7.40;99.90;7.30;100359.00;;;;4926450;28;92280;-62
2024/03/05 08:05:11;;;;;;;22.03;13.67;;;7.40;99.90;7.30;100363.00;;;;4928154;28;93120;-63
2024/03/05 08:07:38;;;;;;;23.93;13.00;;;7.40;99.90;7.50;100357.00;;;;4929749;28;94409;-64
2024/03/05 08:10:06;;;;;;;21.80;12.50;;;7.60;99.90;7.70;100361.00;;;;4930223;28;94192;-64
2024/03/05 08:12:34;;;;;;;24.13;11.93;;;7.70;99.90;8.00;100353.00;;;;4930557;28;92946;-65
2024/03/05 08:14:59;;;;;;;27.77;13.27;;;8.70;99.90;8.30;100344.00;;;;4929513;28;93356;-64
2024/03/05 08:17:25;;;;;;;17.00;12.53;;;8.30;99.90;8.60;100355.00;;;;4924602;28;122312;-64
2024/03/05 08:19:51;;;;;;;25.37;12.43;;;8.60;99.90;8.70;100354.00;;;;4928959;28;122676;-64
2024/03/05 08:22:20;;;;;;;18.10;12.20;;;8.70;99.90;8.90;100341.00;;;;4930804;28;93738;-64
2024/03/05 08:24:46;;;;;;;17.27;11.07;;;8.90;99.90;9.10;100341.00;;;;4933934;28;93371;-64
2024/03/05 08:27:12;;;;;;;20.27;11.97;;;9.10;99.90;9.10;100344.00;;;;4930005;28;115556;-64
2024/03/05 08:29:39;;;;;;;18.43;11.87;;;9.10;99.90;9.10;100348.00;;;;4926781;28;93313;-65
2024/03/05 08:32:09;;;;;;;23.37;10.77;;;9.20;99.90;9.00;100352.00;;;;4931277;28;92758;-63
2024/03/05 08:34:37;;;;;;;17.53;10.60;;;9.20;99.90;8.90;100348.00;;;;4927685;28;93927;-64
2024/03/05 08:37:02;;;;;;;12.10;9.67;;;9.10;99.90;8.80;100347.00;;;;4934355;28;94935;-63
2024/03/05 08:39:28;;;;;;;17.00;9.77;;;9.20;99.90;9.00;100350.00;;;;4928954;28;123074;-64
2024/03/05 08:41:54;;;;;;;17.10;11.00;;;9.00;99.90;9.30;100357.00;;;;4930603;28;109558;-65
2024/03/05 08:44:19;;;;;;;20.27;11.00;;;9.30;99.90;9.60;100357.00;;;;4929891;28;108859;-62
2024/03/05 08:46:45;;;;;;;29.17;10.47;;;9.60;99.90;9.80;100357.00;;;;4927679;28;123152;-63
2024/03/05 08:49:11;;;;;;;15.37;10.83;;;9.90;99.90;9.90;100377.00;;;;4927486;28;122409;-63
2024/03/05 08:51:38;;;;;;;17.17;9.77;;;10.00;99.90;10.10;100371.00;;;;4935212;28;92306;-63
2024/03/05 08:54:08;;;;;;;12.43;8.97;;;10.10;99.90;10.30;100368.00;;;;4929848;28;93060;-63
2024/03/05 08:56:36;;;;;;;11.20;8.90;;;10.30;99.90;10.50;100374.00;;;;4931496;28;93631;-64
2024/03/05 08:59:06;;;;;;;16.70;9.77;;;10.50;99.90;10.60;100372.00;;;;4927331;28;94542;-63
2024/03/05 09:01:33;;;;;;;15.80;10.30;;;10.60;99.90;10.70;100378.00;;;;4930169;28;93154;-63
2024/03/05 09:04:05;;;;;;;18.20;8.27;;;10.70;99.90;10.80;100390.00;;;;4930950;28;93256;-64
2024/03/05 09:06:32;;;;;;;17.10;9.53;;;10.80;99.90;10.90;100389.00;;;;4931011;28;94132;-63
2024/03/05 09:08:58;;;;;;;15.17;8.80;;;10.90;99.90;11.00;100392.00;;;;4927580;28;93252;-63
2024/03/05 09:11:24;;;;;;;10.87;8.30;;;11.00;99.90;11.10;100396.00;;;;4929008;28;92937;-62
2024/03/05 09:13:49;;;;;;;15.63;8.23;;;11.00;99.90;11.00;100393.00;;;;4925471;28;93099;-63
2024/03/05 09:16:16;;;;;;;16.47;9.03;;;11.10;99.90;11.00;100402.00;;;;4928386;28;92298;-63
2024/03/05 09:18:42;;;;;;;15.03;9.33;;;11.00;99.90;10.80;100399.00;;;;4931991;28;93061;-63
2024/03/05 09:21:09;;;;;;;17.03;8.50;;;10.90;99.90;10.70;100397.00;;;;4930293;28;110007;-65
2024/03/05 09:23:36;;;;;;;18.10;9.37;;;10.80;99.90;10.70;100415.00;;;;4927812;28;93922;-63
2024/03/05 09:26:03;;;;;;;21.73;9.07;;;10.70;99.90;10.60;100410.00;;;;4927428;28;106399;-63
2024/03/05 09:28:31;;;;;;;16.60;9.03;;;10.70;99.90;10.50;100408.00;;;;4928445;28;93670;-62
2024/03/05 09:30:57;;;;;;;11.87;8.57;;;10.60;99.90;10.50;100409.00;;;;4927154;28;92792;-63
2024/03/05 09:33:24;;;;;;;17.00;8.13;;;10.60;99.90;10.50;100405.00;;;;4927750;28;109432;-63
2024/03/05 09:35:49;;;;;;;12.33;8.53;;;10.60;99.90;10.40;100411.00;;;;4928607;28;93644;-63
2024/03/05 09:38:16;;;;;;;14.17;7.77;;;10.50;99.90;10.30;100409.00;;;;4928900;28;106253;-64
2024/03/05 09:40:42;;;;;;;13.63;8.03;;;10.40;99.90;10.30;100415.00;;;;4928875;28;92478;-64
2024/03/05 09:43:10;;;;;;;13.90;8.17;;;10.30;99.90;10.50;100413.00;;;;4932418;28;93166;-63
2024/03/05 09:45:37;;;;;;;14.93;8.80;;;10.50;99.90;10.80;100423.00;;;;4942699;28;122434;-64
2024/03/05 09:48:04;;;;;;;14.97;9.00;;;10.70;99.90;11.10;100422.00;;;;4928551;28;95404;-64
2024/03/05 09:50:33;;;;;;;13.23;7.53;;;10.90;99.90;11.50;100413.00;;;;4931209;28;104485;-63
2024/03/05 09:53:00;;;;;;;16.87;9.57;;;11.30;99.90;11.90;100420.00;;;;4927547;28;92937;-63
2024/03/05 09:55:26;;;;;;;16.33;8.23;;;11.70;99.90;12.30;100423.00;;;;4925966;28;93975;-64
2024/03/05 09:57:55;;;;;;;14.80;7.37;;;12.10;99.90;12.40;100426.00;;;;4927039;28;114179;-63
2024/03/05 10:00:22;;;;;;;11.50;7.30;;;12.30;98.80;12.60;100424.00;;;;4928840;28;92821;-63
2024/03/05 10:02:51;;;;;;;14.90;8.63;;;12.40;95.70;12.60;100431.00;;;;4925521;28;108993;-63
2024/03/05 10:05:19;;;;;;;17.87;9.23;;;12.50;95.60;12.90;100423.00;;;;4929768;28;121503;-63
2024/03/05 10:07:46;;;;;;;16.17;8.67;;;12.70;96.60;13.30;100431.00;;;;4937268;28;109488;-61
2024/03/05 10:10:14;;;;;;;14.73;7.80;;;13.00;96.90;13.70;100443.00;;;;4933918;28;92903;-63
2024/03/05 10:12:40;;;;;;;9.73;6.27;;;13.40;94.30;13.90;100432.00;;;;4938277;28;93885;-62
2024/03/05 10:15:20;;;;;;;11.83;7.23;;;13.60;94.20;14.20;100426.00;;;;4936369;28;94348;-62
2024/03/05 10:17:49;;;;;;;13.63;6.63;;;14.00;94.30;14.60;100423.00;;;;4936611;28;94866;-62
2024/03/05 10:20:36;;;;;;;12.90;8.23;;;14.30;94.50;14.90;100432.00;;;;4935390;28;92660;-65
2024/03/05 10:23:05;;;;;;;12.93;7.32;;;14.60;91.80;15.10;100436.00;;;;4929881;28;92761;-63
2024/03/05 10:25:33;;;;;;;14.20;8.13;;;14.80;90.00;15.10;100439.00;;;;4934800;28;93658;-62
2024/03/05 10:28:02;;;;;;;9.77;6.80;;;14.90;86.40;15.20;100435.00;;;;4935170;28;93007;-63
2024/03/05 10:30:33;;;;;;;10.80;6.85;;;14.90;86.50;15.30;100433.00;;;;4933335;28;92511;-62
2024/03/05 10:33:01;;;;;;;8.02;6.10;;;15.10;86.60;15.50;100443.00;;;;4929509;28;93161;-63
2024/03/05 10:35:29;;;;;;;11.80;7.60;;;15.20;85.70;15.50;100432.00;;;;4931052;28;94468;-61
2024/03/05 10:38:09;;;;;;;12.10;6.25;;;15.30;81.00;15.70;100431.00;;;;4936653;28;93767;-63
2024/03/05 10:40:36;;;;;;;8.18;5.55;;;15.40;83.30;15.90;100437.00;;;;4935783;28;93276;-62
2024/03/05 10:43:07;;;;;;;10.40;6.22;;;15.60;83.30;16.30;100439.00;;;;4933956;28;98399;-63
2024/03/05 10:45:39;;;;;;;9.27;6.20;;;15.90;84.10;16.60;100455.00;;;;4934246;28;93020;-64
2024/03/05 10:48:09;;;;;;;9.63;6.80;;;16.20;83.30;16.80;100457.00;;;;4935755;28;93359;-64